Tuesday, February 09, 2016
22:44 UTC
  |  Log In   |  Register Free
Airport Search:

Indiana County/Jimmy Stewart Fld/ Airport
(KIDI)

Indiana County/Jimmy Stewart Fld/ Airport Diagram
No Airport Diagram Available

FAA data valid effective Dec 10 2015 - Feb 4 2016 (unless otherwise noted).

 
 
 
 
 
 
 
 
 
 
 
 
 
 
Current Aviation Weather for KIDI

Weather Summary


The most recent METAR observation for IDI was updated at: 12:55 UTC
METAR for KIDI is not available. Closest METAR is for KLBE
KIDI  (most recent observation was updatred at 92:21 UTC)
092215Z AUTO 27011G16KT 3/4SM BR SCT005 BKN009 OVC018 M03/M03 A2962 RMK A01

KLBE  (25.5 nm NE)   (most recent observation was updated at 92:14 UTC)
092147Z 24010G18KT 1SM -SN OVC002 M03/M04 A2963

KDUJ  (34.1 nm SW)   (most recent observation was updated at 92:15 UTC)
092153Z AUTO 27012KT 10SM FEW022 OVC027 M01/M06 A2951 RMK AO2 SLP009 T10111056

TAF for KIDI is not available.
KJST  (22.7 nm NW)   (most recent observation was updatred at 92:12 UTC)
AMD 092128Z 0921/1018 25009KT 3/4SM -SN SCT009 BKN015 OVC021 FM092300 26010KT 1 1/2SM -SN BR OVC007 FM100200 27012G18KT 2SM -SN BR OVC007 FM100900 27013G20KT 5SM -SHSN BR OVC009


KLBE  (25.5 nm NE)   (most recent observation was updatred at 91:72 UTC)
091723Z 0918/1018 23014G22KT 1SM -SN BR OVC012 FM100000 27008KT 5SM -SHSN OVC010 FM100600 26010KT P6SM OVC015


KDUJ  (34.1 nm SW)   (most recent observation was updatred at 91:72 UTC)
091723Z 0918/1018 27007KT P6SM -SHSN OVC010 FM100600 26010KT 3SM -SHSN OVC008
GlobalAir.com is loading additional information.
 Current Weather at IDI
27.0 F° (-3.0 C°)

West winds at 10.4 mph
Pressure:
29.58 in
Humidity:
100%
Wind:
West at 10.4 mph
Dew Point:
26.6 F° (-3.0 C°)
Visibility:
1.00 mi
IDI NOAA Radar




Find All Airport Services Find A Hotel Find A Rental Car Find A Golf Course Find A Restaurant $100 Hamburger



Airport Weather Forecast for KIDI

Translated METAR for KIDI (2215 UTC)
METAR:
KIDI 092215Z AUTO 27011G16KT 3/4SM BR SCT005 BKN009 OVC018 M03/M03 A2962 RMK A01
Conditions at:
KIDI (Indiana County/Jimmy Stewart Fld/, PA) observed 2215 UTC 09 February 2016
Temperature:
-3°C (26.6°F)
Dewpoint:
-3°C (26.6°F) [RH = 100]
Pressure:
29.62 inches Hg (1003 mb)
Winds:
from the W (270 degrees) at 12.7 mph (11 knots: 5.7 m/s)
gusting to 18.4 mph (16 knots: 8.2 m/s)
Visibility:
.75 mile(s)
Ceiling:
900 feet AGL
Clouds:
Scattered Clouds at 500 feet AGL
Broken Cloud Cover at 900 feet AGL
Overcast Skies at 1,800 feet AGL
Remarks:
site is un-manned

Translated TAF for KJST (John Murtha Johnstown-Cambria Co, PA) (2128 UTC)
TAF text:
KJST 092128Z 0921/1018 25009KT 3/4SM -SN SCT009 BKN015 OVC021
Forecast period:
Tuesday Feb 09 2016 21:00 UTC - Wednesday Feb 10 2016 18:00 UTC
Forecast type:
FROM: standard forecast or significant change
Winds:
from the WSW (250 degrees) at 10.4 mph (9 knots: 4.6 m/s)
Visibility:
0.75 mile(s) (1.2 km)
Ceiling:
1,500 feet AGL
Clouds:
Scattered Clouds at 900 feet AGL
Broken Cloud Cover at 1,500 feet AGL
Overcast Skies at 2,100 feet AGL
Weather:
Light Snow
TAF text:
FM092300 26010KT 1 1/2SM -SN BR OVC007
Forecast period:
Tuesday Feb 09 2016 23:00 UTC - Wednesday Feb 10 2016 02:00 UTC
Forecast type:
FROM: standard forecast or significant change
Winds:
from the W (260 degrees) at 11.5 mph (10 knots: 5.1 m/s)
Visibility:
1.5 mile(s) (2.4 km)
Ceiling:
700 feet AGL
Clouds:
Overcast Skies at 700 feet AGL
Weather:
Light Snow
TAF text:
FM100200 27012G18KT 2SM -SN BR OVC007
Forecast period:
Wednesday Feb 10 2016 02:00 UTC - Wednesday Feb 10 2016 09:00 UTC
Forecast type:
FROM: standard forecast or significant change
Winds:
from the W (270 degrees) at 13.8 mph (12 knots: 6.2 m/s)
gusting to 20.7 mph (18 knots: 9.3 m/s)
Visibility:
2 mile(s) (3.2 km)
Ceiling:
700 feet AGL
Clouds:
Overcast Skies at 700 feet AGL
Weather:
Light Snow
TAF text:
FM100900 27013G20KT 5SM -SHSN BR OVC009
Forecast period:
Wednesday Feb 10 2016 09:00 UTC - Wednesday Feb 10 2016 18:00 UTC
Forecast type:
FROM: standard forecast or significant change
Winds:
from the W (270 degrees) at 15 mph (13 knots: 6.7 m/s)
gusting to 23 mph (20 knots: 10.3 m/s)
Visibility:
5 mile(s) (8 km)
Ceiling:
900 feet AGL
Clouds:
Overcast Skies at 900 feet AGL
Weather:
Light Shower(s) Snow
FBO's on the Field
FBO Company Facility Photos Services Transportation Aviation Fuel Prices: Prices include tax
Catering Weather Repair Courtesy Rental Type 100LL JetA JetA+ MOGAS 8087
 
Indiana County Jimmy Stewart Airport

Currently rated 5 by 1 person
FS:Phillips 66
Last Updated: Jan-27
Login to update fuel prices
SS:
Contact Indiana County Jimmy Stewart AirportMore FBO Information
 
Add another FBO Facility Photos Catering Weather Repair Courtesy Rental Type 100LL JetA JetA+ MOGAS 8087
Services Transportation Aviation Fuel Prices: Prices include tax


model-print
model-print
model-print
model-print